AUA2LD LOWW-LOWW
Flight info
| Callsign | AUA2LD |
|---|---|
| Flight time | 0h 35m |
| Altitude | 35000 |
| Route | LANUX6D LANUX LANUX7W |
| Aircraft | A320/M-V/N |
Departure
| Time | 2026-04-22 09:10 |
|---|---|
| Airport | Vienna International Airport (LOWW) |
Arrival
| Time | 2026-04-22 09:45 |
|---|---|
| Airport | Vienna International Airport (LOWW) |
| Time | Latitude | Longitude | Altitude | Speed | Heading |
|---|---|---|---|---|---|
| 2026-04-22 08:53 | 48.11386 | 16.57247 | 625 ft | 0 kts | 206° |
| 2026-04-22 09:03 | 48.11385 | 16.57247 | 624 ft | 0 kts | 206° |
| 2026-04-22 09:03 | 48.11363 | 16.57230 | 624 ft | 5 kts | 205° |
| 2026-04-22 09:03 | 48.11327 | 16.57214 | 610 ft | 5 kts | 176° |
| 2026-04-22 09:03 | 48.11306 | 16.57256 | 618 ft | 6 kts | 112° |
| 2026-04-22 09:04 | 48.11281 | 16.57341 | 619 ft | 10 kts | 114° |
| 2026-04-22 09:04 | 48.11249 | 16.57438 | 622 ft | 11 kts | 118° |
| 2026-04-22 09:04 | 48.11214 | 16.57541 | 614 ft | 11 kts | 116° |
| 2026-04-22 09:04 | 48.11179 | 16.57650 | 620 ft | 12 kts | 115° |
| 2026-04-22 09:05 | 48.11140 | 16.57762 | 622 ft | 12 kts | 114° |
| 2026-04-22 09:05 | 48.11103 | 16.57879 | 617 ft | 13 kts | 119° |
| 2026-04-22 09:05 | 48.11029 | 16.57942 | 610 ft | 14 kts | 168° |
| 2026-04-22 09:05 | 48.10883 | 16.58001 | 611 ft | 30 kts | 164° |
| 2026-04-22 09:06 | 48.10668 | 16.58093 | 615 ft | 34 kts | 164° |
| 2026-04-22 09:06 | 48.10475 | 16.58137 | 616 ft | 12 kts | 232° |
| 2026-04-22 09:06 | 48.10425 | 16.58062 | 613 ft | 13 kts | 182° |
| 2026-04-22 09:06 | 48.10334 | 16.58096 | 615 ft | 14 kts | 166° |
| 2026-04-22 09:07 | 48.10241 | 16.58138 | 612 ft | 14 kts | 164° |
| 2026-04-22 09:07 | 48.10144 | 16.58177 | 620 ft | 15 kts | 165° |
| 2026-04-22 09:07 | 48.10042 | 16.58218 | 614 ft | 17 kts | 164° |
| 2026-04-22 09:07 | 48.09925 | 16.58268 | 613 ft | 18 kts | 164° |
| 2026-04-22 09:08 | 48.09799 | 16.58320 | 624 ft | 19 kts | 163° |
| 2026-04-22 09:08 | 48.09672 | 16.58375 | 622 ft | 19 kts | 163° |
| 2026-04-22 09:08 | 48.09645 | 16.58518 | 623 ft | 16 kts | 56° |
| 2026-04-22 09:08 | 48.09761 | 16.58573 | 610 ft | 20 kts | 11° |
| 2026-04-22 09:09 | 48.09908 | 16.58610 | 619 ft | 23 kts | 7° |
| 2026-04-22 09:09 | 48.10082 | 16.58616 | 618 ft | 30 kts | 346° |
| 2026-04-22 09:09 | 48.10465 | 16.58455 | 610 ft | 107 kts | 344° |
| 2026-04-22 09:09 | 48.11446 | 16.58032 | 1132 ft | 155 kts | 343° |
| 2026-04-22 09:10 | 48.12501 | 16.57645 | 2585 ft | 166 kts | 355° |
| 2026-04-22 09:10 | 48.13730 | 16.58070 | 3169 ft | 201 kts | 21° |
| 2026-04-22 09:10 | 48.15092 | 16.58993 | 3975 ft | 228 kts | 24° |
| 2026-04-22 09:10 | 48.16591 | 16.60092 | 4983 ft | 250 kts | 25° |
| 2026-04-22 09:11 | 48.18183 | 16.61256 | 5031 ft | 253 kts | 24° |
| 2026-04-22 09:11 | 48.19718 | 16.62582 | 5011 ft | 252 kts | 37° |
| 2026-04-22 09:11 | 48.20818 | 16.64638 | 5016 ft | 258 kts | 61° |
| 2026-04-22 09:11 | 48.21202 | 16.67263 | 4911 ft | 262 kts | 89° |
| 2026-04-22 09:12 | 48.20612 | 16.69758 | 4743 ft | 257 kts | 127° |
| 2026-04-22 09:12 | 48.19119 | 16.71108 | 4442 ft | 255 kts | 166° |
| 2026-04-22 09:12 | 48.17396 | 16.71508 | 4311 ft | 243 kts | 172° |
| 2026-04-22 09:12 | 48.15783 | 16.71929 | 4296 ft | 229 kts | 168° |
| 2026-04-22 09:13 | 48.14207 | 16.72128 | 4222 ft | 226 kts | 181° |
| 2026-04-22 09:13 | 48.12664 | 16.71830 | 4004 ft | 225 kts | 191° |
| 2026-04-22 09:13 | 48.11125 | 16.71365 | 3833 ft | 228 kts | 193° |
| 2026-04-22 09:13 | 48.09576 | 16.70858 | 3664 ft | 226 kts | 193° |
| 2026-04-22 09:14 | 48.08049 | 16.70368 | 3454 ft | 223 kts | 193° |
| 2026-04-22 09:14 | 48.06511 | 16.69887 | 3308 ft | 228 kts | 192° |
| 2026-04-22 09:14 | 48.04967 | 16.69422 | 3166 ft | 225 kts | 192° |
| 2026-04-22 09:14 | 48.03437 | 16.68967 | 3058 ft | 223 kts | 192° |
| 2026-04-22 09:15 | 48.01946 | 16.68531 | 2997 ft | 212 kts | 192° |
| 2026-04-22 09:15 | 48.00601 | 16.67962 | 2883 ft | 190 kts | 213° |
| 2026-04-22 09:15 | 47.99771 | 16.66623 | 2740 ft | 169 kts | 249° |
| 2026-04-22 09:15 | 47.99589 | 16.64963 | 2533 ft | 157 kts | 283° |
| 2026-04-22 09:16 | 47.99965 | 16.63547 | 2437 ft | 140 kts | 311° |
| 2026-04-22 09:16 | 48.00668 | 16.62644 | 2309 ft | 129 kts | 335° |
| 2026-04-22 09:16 | 48.01518 | 16.62227 | 2199 ft | 130 kts | 345° |
| 2026-04-22 09:16 | 48.02375 | 16.61868 | 2033 ft | 122 kts | 345° |
| 2026-04-22 09:17 | 48.03191 | 16.61526 | 1866 ft | 122 kts | 345° |
| 2026-04-22 09:17 | 48.04003 | 16.61184 | 1683 ft | 121 kts | 345° |
| 2026-04-22 09:17 | 48.04811 | 16.60844 | 1511 ft | 120 kts | 343° |
| 2026-04-22 09:17 | 48.05615 | 16.60505 | 1330 ft | 120 kts | 344° |
| 2026-04-22 09:18 | 48.06414 | 16.60168 | 1155 ft | 120 kts | 344° |
| 2026-04-22 09:18 | 48.07214 | 16.59830 | 988 ft | 119 kts | 344° |
| 2026-04-22 09:18 | 48.08013 | 16.59488 | 809 ft | 119 kts | 343° |
| 2026-04-22 09:18 | 48.08811 | 16.59145 | 669 ft | 119 kts | 344° |
| 2026-04-22 09:19 | 48.09599 | 16.58817 | 621 ft | 117 kts | 344° |
| 2026-04-22 09:19 | 48.10303 | 16.58525 | 612 ft | 92 kts | 345° |
| 2026-04-22 09:19 | 48.11081 | 16.58192 | 665 ft | 149 kts | 344° |
| 2026-04-22 09:19 | 48.12108 | 16.57753 | 1706 ft | 161 kts | 343° |
| 2026-04-22 09:20 | 48.13241 | 16.57255 | 2419 ft | 172 kts | 345° |
| 2026-04-22 09:20 | 48.14396 | 16.56832 | 2575 ft | 171 kts | 353° |
| 2026-04-22 09:20 | 48.15566 | 16.57269 | 2610 ft | 187 kts | 32° |
| 2026-04-22 09:20 | 48.16383 | 16.58957 | 2604 ft | 218 kts | 73° |
| 2026-04-22 09:21 | 48.16216 | 16.61220 | 2604 ft | 228 kts | 116° |
| 2026-04-22 09:21 | 48.15053 | 16.62825 | 2602 ft | 234 kts | 157° |
| 2026-04-22 09:21 | 48.13457 | 16.63405 | 2610 ft | 237 kts | 174° |
| 2026-04-22 09:21 | 48.11812 | 16.63575 | 2607 ft | 238 kts | 179° |
| 2026-04-22 09:22 | 48.10154 | 16.63655 | 2599 ft | 234 kts | 178° |
| 2026-04-22 09:22 | 48.08505 | 16.63734 | 2612 ft | 238 kts | 178° |
| 2026-04-22 09:22 | 48.06844 | 16.63787 | 2611 ft | 239 kts | 180° |
| 2026-04-22 09:22 | 48.05180 | 16.63811 | 2608 ft | 238 kts | 184° |
| 2026-04-22 09:23 | 48.03570 | 16.63306 | 2497 ft | 237 kts | 194° |
| 2026-04-22 09:23 | 48.01956 | 16.63069 | 2346 ft | 228 kts | 177° |
| 2026-04-22 09:23 | 48.00444 | 16.63382 | 2227 ft | 210 kts | 168° |
| 2026-04-22 09:23 | 47.99080 | 16.63558 | 2313 ft | 182 kts | 199° |
| 2026-04-22 09:24 | 47.98368 | 16.62307 | 2438 ft | 155 kts | 287° |
| 2026-04-22 09:24 | 47.99027 | 16.61378 | 2491 ft | 140 kts | 4° |
| 2026-04-22 09:24 | 47.99980 | 16.61771 | 2429 ft | 146 kts | 20° |
| 2026-04-22 09:24 | 48.00913 | 16.62324 | 2273 ft | 143 kts | 6° |
| 2026-04-22 09:25 | 48.01866 | 16.62115 | 2117 ft | 138 kts | 341° |
| 2026-04-22 09:25 | 48.02780 | 16.61629 | 1938 ft | 139 kts | 343° |
| 2026-04-22 09:25 | 48.03723 | 16.61253 | 1747 ft | 142 kts | 345° |
| 2026-04-22 09:25 | 48.04669 | 16.60889 | 1501 ft | 139 kts | 344° |
| 2026-04-22 09:26 | 48.05585 | 16.60489 | 1283 ft | 136 kts | 344° |
| 2026-04-22 09:26 | 48.06482 | 16.60112 | 1122 ft | 134 kts | 345° |
| 2026-04-22 09:26 | 48.07380 | 16.59744 | 909 ft | 133 kts | 345° |
| 2026-04-22 09:26 | 48.08270 | 16.59368 | 757 ft | 134 kts | 344° |
| 2026-04-22 09:27 | 48.09165 | 16.58999 | 631 ft | 131 kts | 345° |
| 2026-04-22 09:27 | 48.09950 | 16.58673 | 617 ft | 105 kts | 345° |
| 2026-04-22 09:27 | 48.10598 | 16.58401 | 620 ft | 94 kts | 345° |
| 2026-04-22 09:27 | 48.11356 | 16.58078 | 616 ft | 136 kts | 344° |
| 2026-04-22 09:28 | 48.12274 | 16.57678 | 1209 ft | 139 kts | 343° |
| 2026-04-22 09:28 | 48.13245 | 16.57235 | 1903 ft | 151 kts | 343° |
| 2026-04-22 09:28 | 48.14307 | 16.56901 | 2455 ft | 159 kts | 356° |
| 2026-04-22 09:28 | 48.15343 | 16.57248 | 2642 ft | 153 kts | 31° |
| 2026-04-22 09:29 | 48.16038 | 16.58580 | 2639 ft | 181 kts | 70° |
| 2026-04-22 09:29 | 48.15928 | 16.60485 | 2619 ft | 195 kts | 116° |
| 2026-04-22 09:29 | 48.14878 | 16.61747 | 2614 ft | 202 kts | 165° |
| 2026-04-22 09:29 | 48.13465 | 16.62092 | 2618 ft | 208 kts | 174° |
| 2026-04-22 09:30 | 48.12026 | 16.62352 | 2610 ft | 208 kts | 174° |
| 2026-04-22 09:30 | 48.10584 | 16.62604 | 2613 ft | 209 kts | 174° |
| 2026-04-22 09:30 | 48.09141 | 16.62859 | 2618 ft | 209 kts | 173° |
| 2026-04-22 09:30 | 48.07693 | 16.63119 | 2608 ft | 210 kts | 173° |
| 2026-04-22 09:31 | 48.06241 | 16.63383 | 2610 ft | 210 kts | 173° |
| 2026-04-22 09:31 | 48.04798 | 16.63650 | 2613 ft | 209 kts | 173° |
| 2026-04-22 09:31 | 48.03356 | 16.63921 | 2612 ft | 208 kts | 173° |
| 2026-04-22 09:31 | 48.01910 | 16.64195 | 2608 ft | 210 kts | 173° |
| 2026-04-22 09:32 | 48.00459 | 16.64470 | 2614 ft | 210 kts | 173° |
| 2026-04-22 09:32 | 47.99003 | 16.64667 | 2604 ft | 210 kts | 185° |
| 2026-04-22 09:32 | 47.97682 | 16.63881 | 2599 ft | 204 kts | 225° |
| 2026-04-22 09:32 | 47.96995 | 16.62194 | 2591 ft | 181 kts | 266° |
| 2026-04-22 09:33 | 47.97193 | 16.60572 | 2616 ft | 147 kts | 311° |
| 2026-04-22 09:33 | 47.97980 | 16.59873 | 2605 ft | 129 kts | 356° |
| 2026-04-22 09:33 | 47.98796 | 16.60315 | 2616 ft | 127 kts | 26° |
| 2026-04-22 09:33 | 47.99646 | 16.60686 | 2495 ft | 130 kts | 12° |
| 2026-04-22 09:34 | 48.00526 | 16.61017 | 2347 ft | 131 kts | 12° |
| 2026-04-22 09:34 | 48.01410 | 16.61332 | 2190 ft | 130 kts | 6° |
| 2026-04-22 09:34 | 48.02314 | 16.61400 | 2056 ft | 133 kts | 357° |
| 2026-04-22 09:35 | 48.04186 | 16.61058 | 1615 ft | 136 kts | 346° |
| 2026-04-22 09:35 | 48.05104 | 16.60696 | 1455 ft | 136 kts | 345° |
| 2026-04-22 09:35 | 48.06012 | 16.60298 | 1241 ft | 137 kts | 345° |
| 2026-04-22 09:35 | 48.06924 | 16.59914 | 1038 ft | 136 kts | 346° |
| 2026-04-22 09:36 | 48.07531 | 16.59663 | 889 ft | 138 kts | 346° |
| 2026-04-22 09:36 | 48.08445 | 16.59289 | 723 ft | 135 kts | 346° |
| 2026-04-22 09:36 | 48.09337 | 16.58927 | 620 ft | 124 kts | 346° |
| 2026-04-22 09:36 | 48.10089 | 16.58617 | 612 ft | 101 kts | 345° |
| 2026-04-22 09:37 | 48.10713 | 16.58354 | 624 ft | 88 kts | 344° |
| 2026-04-22 09:37 | 48.11432 | 16.58042 | 617 ft | 136 kts | 344° |
| 2026-04-22 09:37 | 48.12437 | 16.57631 | 1189 ft | 158 kts | 345° |
| 2026-04-22 09:37 | 48.13593 | 16.57330 | 1995 ft | 183 kts | 4° |
| 2026-04-22 09:38 | 48.14826 | 16.58184 | 2388 ft | 216 kts | 46° |
| 2026-04-22 09:38 | 48.15353 | 16.60291 | 2665 ft | 226 kts | 89° |
| 2026-04-22 09:38 | 48.14797 | 16.62498 | 2915 ft | 236 kts | 129° |
| 2026-04-22 09:38 | 48.13400 | 16.63744 | 3004 ft | 239 kts | 167° |
| 2026-04-22 09:39 | 48.11752 | 16.63995 | 3015 ft | 239 kts | 180° |
| 2026-04-22 09:39 | 48.10087 | 16.63955 | 3018 ft | 238 kts | 182° |
| 2026-04-22 09:39 | 48.08427 | 16.63916 | 3013 ft | 239 kts | 180° |
| 2026-04-22 09:39 | 48.06764 | 16.63954 | 3008 ft | 239 kts | 179° |
| 2026-04-22 09:40 | 48.05100 | 16.64068 | 3012 ft | 239 kts | 177° |
| 2026-04-22 09:40 | 48.03443 | 16.64242 | 3012 ft | 238 kts | 175° |
| 2026-04-22 09:40 | 48.01790 | 16.64462 | 3008 ft | 240 kts | 175° |
| 2026-04-22 09:40 | 48.00130 | 16.64711 | 3017 ft | 240 kts | 174° |
| 2026-04-22 09:41 | 47.98510 | 16.64968 | 3028 ft | 227 kts | 174° |
| 2026-04-22 09:41 | 47.97023 | 16.64884 | 2944 ft | 203 kts | 209° |
| 2026-04-22 09:41 | 47.96461 | 16.63400 | 2797 ft | 156 kts | 292° |
| 2026-04-22 09:41 | 47.97188 | 16.62616 | 2593 ft | 134 kts | 8° |
| 2026-04-22 09:42 | 47.98058 | 16.63124 | 2600 ft | 137 kts | 22° |
| 2026-04-22 09:42 | 47.98960 | 16.63484 | 2669 ft | 135 kts | 353° |
| 2026-04-22 09:42 | 47.99846 | 16.62971 | 2543 ft | 138 kts | 337° |
| 2026-04-22 09:42 | 48.00756 | 16.62534 | 2355 ft | 139 kts | 338° |
| 2026-04-22 09:43 | 48.01679 | 16.62154 | 2202 ft | 138 kts | 349° |
| 2026-04-22 09:43 | 48.02583 | 16.61696 | 2016 ft | 137 kts | 338° |
| 2026-04-22 09:43 | 48.03491 | 16.61345 | 1805 ft | 136 kts | 347° |
| 2026-04-22 09:43 | 48.04428 | 16.60995 | 1587 ft | 138 kts | 344° |
| 2026-04-22 09:44 | 48.05341 | 16.60595 | 1411 ft | 136 kts | 343° |
| 2026-04-22 09:44 | 48.06252 | 16.60198 | 1181 ft | 137 kts | 346° |
| 2026-04-22 09:44 | 48.07167 | 16.59819 | 956 ft | 138 kts | 346° |
| 2026-04-22 09:44 | 48.08090 | 16.59432 | 782 ft | 136 kts | 346° |
| 2026-04-22 09:45 | 48.08995 | 16.59068 | 638 ft | 135 kts | 346° |
| 2026-04-22 09:45 | 48.09798 | 16.58738 | 613 ft | 100 kts | 343° |
| 2026-04-22 09:45 | 48.10294 | 16.58531 | 621 ft | 42 kts | 343° |
| 2026-04-22 09:45 | 48.10554 | 16.58419 | 621 ft | 37 kts | 343° |
| 2026-04-22 09:46 | 48.10760 | 16.58235 | 618 ft | 34 kts | 313° |
| 2026-04-22 09:46 | 48.10829 | 16.58126 | 610 ft | 5 kts | 315° |
| 2026-04-22 09:46 | 48.10858 | 16.58083 | 619 ft | 7 kts | 315° |
| 2026-04-22 09:46 | 48.10905 | 16.58012 | 613 ft | 11 kts | 314° |
| 2026-04-22 09:47 | 48.10962 | 16.57924 | 613 ft | 13 kts | 314° |
| 2026-04-22 09:47 | 48.11028 | 16.57822 | 618 ft | 14 kts | 308° |
| 2026-04-22 09:47 | 48.11119 | 16.57756 | 613 ft | 16 kts | 344° |
| 2026-04-22 09:47 | 48.11177 | 16.57651 | 617 ft | 14 kts | 294° |
| 2026-04-22 09:48 | 48.11229 | 16.57512 | 618 ft | 16 kts | 308° |
| 2026-04-22 09:48 | 48.11267 | 16.57363 | 621 ft | 16 kts | 303° |
| 2026-04-22 09:48 | 48.11368 | 16.57366 | 623 ft | 16 kts | 30° |
| 2026-04-22 09:48 | 48.11445 | 16.57322 | 619 ft | 12 kts | 294° |
| 2026-04-22 09:49 | 48.11486 | 16.57199 | 610 ft | 14 kts | 297° |
| 2026-04-22 09:49 | 48.11532 | 16.57060 | 624 ft | 14 kts | 295° |
| 2026-04-22 09:49 | 48.11555 | 16.56992 | 615 ft | 5 kts | 298° |
| 2026-04-22 09:49 | 48.11571 | 16.56945 | 613 ft | 5 kts | 296° |
| 2026-04-22 09:50 | 48.11584 | 16.56904 | 618 ft | 4 kts | 296° |
| 2026-04-22 09:50 | 48.11595 | 16.56881 | 618 ft | 2 kts | 319° |
| 2026-04-22 09:50 | 48.11602 | 16.56881 | 614 ft | 1 kts | 355° |
| 2026-04-22 09:50 | 48.11604 | 16.56881 | 621 ft | 0 kts | 355° |
| 2026-04-22 09:51 | 48.11606 | 16.56879 | 622 ft | 1 kts | 346° |
| 2026-04-22 09:51 | 48.11607 | 16.56875 | 621 ft | 0 kts | 315° |
| 2026-04-22 09:51 | 48.11609 | 16.56845 | 618 ft | 5 kts | 278° |
| 2026-04-22 09:51 | 48.11623 | 16.56806 | 622 ft | 4 kts | 316° |
| 2026-04-22 09:52 | 48.11662 | 16.56823 | 615 ft | 8 kts | 34° |
| 2026-04-22 09:52 | 48.11689 | 16.56843 | 622 ft | 0 kts | 25° |
| 2026-04-22 09:52 | 48.11689 | 16.56844 | 622 ft | 0 kts | 25° |